sensor_id;sensor_type;location;lat;lon;timestamp;P1;durP1;ratioP1;P2;durP2;ratioP2
52248;SDS011;38541;48.130;8.378;2022-08-25T00:01:01;3.88;;;3.03;;
52248;SDS011;38541;48.130;8.378;2022-08-25T00:03:33;3.47;;;3.17;;
52248;SDS011;38541;48.130;8.378;2022-08-25T00:06:05;3.38;;;3.00;;
52248;SDS011;38541;48.130;8.378;2022-08-25T00:08:32;3.20;;;2.90;;
52248;SDS011;38541;48.130;8.378;2022-08-25T00:11:00;4.95;;;3.67;;
52248;SDS011;38541;48.130;8.378;2022-08-25T00:13:28;3.55;;;3.25;;
52248;SDS011;38541;48.130;8.378;2022-08-25T00:15:55;5.30;;;3.13;;
52248;SDS011;38541;48.130;8.378;2022-08-25T00:18:22;3.38;;;3.08;;
52248;SDS011;38541;48.130;8.378;2022-08-25T00:20:49;4.18;;;3.15;;
52248;SDS011;38541;48.130;8.378;2022-08-25T00:23:16;3.10;;;2.90;;
52248;SDS011;38541;48.130;8.378;2022-08-25T00:25:43;3.30;;;3.00;;
52248;SDS011;38541;48.130;8.378;2022-08-25T00:28:10;3.10;;;2.83;;
52248;SDS011;38541;48.130;8.378;2022-08-25T00:30:37;2.80;;;2.60;;
52248;SDS011;38541;48.130;8.378;2022-08-25T00:33:04;3.13;;;2.88;;
52248;SDS011;38541;48.130;8.378;2022-08-25T00:35:30;3.38;;;3.08;;
52248;SDS011;38541;48.130;8.378;2022-08-25T00:37:57;2.78;;;2.58;;
52248;SDS011;38541;48.130;8.378;2022-08-25T00:40:24;2.83;;;2.63;;
52248;SDS011;38541;48.130;8.378;2022-08-25T00:42:52;2.80;;;2.60;;
52248;SDS011;38541;48.130;8.378;2022-08-25T00:45:19;3.08;;;2.75;;
52248;SDS011;38541;48.130;8.378;2022-08-25T00:47:46;2.80;;;2.60;;
52248;SDS011;38541;48.130;8.378;2022-08-25T00:50:13;3.20;;;3.00;;
52248;SDS011;38541;48.130;8.378;2022-08-25T00:52:41;2.95;;;2.45;;
52248;SDS011;38541;48.130;8.378;2022-08-25T00:55:13;2.80;;;2.60;;
52248;SDS011;38541;48.130;8.378;2022-08-25T00:57:45;3.03;;;2.83;;
52248;SDS011;38541;48.130;8.378;2022-08-25T01:00:20;3.33;;;2.83;;
52248;SDS011;38541;48.130;8.378;2022-08-25T01:02:51;2.78;;;2.42;;
52248;SDS011;38541;48.130;8.378;2022-08-25T01:05:18;3.85;;;3.50;;
52248;SDS011;38541;48.130;8.378;2022-08-25T01:07:45;2.60;;;2.40;;
52248;SDS011;38541;48.130;8.378;2022-08-25T01:10:12;3.33;;;3.03;;
52248;SDS011;38541;48.130;8.378;2022-08-25T01:12:39;3.00;;;2.70;;
52248;SDS011;38541;48.130;8.378;2022-08-25T01:15:07;2.95;;;2.70;;
52248;SDS011;38541;48.130;8.378;2022-08-25T01:17:54;3.08;;;2.88;;
52248;SDS011;38541;48.130;8.378;2022-08-25T01:20:23;3.40;;;2.90;;
52248;SDS011;38541;48.130;8.378;2022-08-25T01:22:55;3.20;;;3.00;;
52248;SDS011;38541;48.130;8.378;2022-08-25T01:28:14;2.40;;;2.30;;
52248;SDS011;38541;48.130;8.378;2022-08-25T01:30:42;2.88;;;2.35;;
52248;SDS011;38541;48.130;8.378;2022-08-25T01:33:09;3.10;;;2.90;;
52248;SDS011;38541;48.130;8.378;2022-08-25T01:35:38;3.08;;;2.88;;
52248;SDS011;38541;48.130;8.378;2022-08-25T01:38:06;2.90;;;2.70;;
52248;SDS011;38541;48.130;8.378;2022-08-25T01:40:34;2.90;;;2.70;;
52248;SDS011;38541;48.130;8.378;2022-08-25T01:45:35;3.65;;;3.20;;
52248;SDS011;38541;48.130;8.378;2022-08-25T01:48:04;2.60;;;2.40;;
52248;SDS011;38541;48.130;8.378;2022-08-25T01:50:32;2.63;;;2.42;;
52248;SDS011;38541;48.130;8.378;2022-08-25T01:56:22;2.90;;;2.70;;
52248;SDS011;38541;48.130;8.378;2022-08-25T01:58:49;2.72;;;2.53;;
52248;SDS011;38541;48.130;8.378;2022-08-25T02:01:18;3.25;;;3.05;;
52248;SDS011;38541;48.130;8.378;2022-08-25T02:03:48;3.00;;;2.80;;
52248;SDS011;38541;48.130;8.378;2022-08-25T02:06:19;2.92;;;2.70;;
52248;SDS011;38541;48.130;8.378;2022-08-25T02:08:56;3.40;;;3.10;;
52248;SDS011;38541;48.130;8.378;2022-08-25T02:11:26;2.80;;;2.60;;
52248;SDS011;38541;48.130;8.378;2022-08-25T02:13:53;2.90;;;2.70;;
52248;SDS011;38541;48.130;8.378;2022-08-25T02:16:22;2.95;;;2.70;;
52248;SDS011;38541;48.130;8.378;2022-08-25T02:18:54;2.88;;;2.65;;
52248;SDS011;38541;48.130;8.378;2022-08-25T02:21:21;3.40;;;2.97;;
52248;SDS011;38541;48.130;8.378;2022-08-25T02:23:48;2.50;;;2.30;;
52248;SDS011;38541;48.130;8.378;2022-08-25T02:26:15;3.17;;;2.88;;
52248;SDS011;38541;48.130;8.378;2022-08-25T02:28:44;3.22;;;2.92;;
52248;SDS011;38541;48.130;8.378;2022-08-25T02:31:12;2.90;;;2.60;;
52248;SDS011;38541;48.130;8.378;2022-08-25T02:33:39;3.55;;;2.65;;
52248;SDS011;38541;48.130;8.378;2022-08-25T02:36:06;3.10;;;2.90;;
52248;SDS011;38541;48.130;8.378;2022-08-25T02:38:32;2.65;;;2.45;;
52248;SDS011;38541;48.130;8.378;2022-08-25T02:40:59;2.72;;;2.53;;
52248;SDS011;38541;48.130;8.378;2022-08-25T02:43:26;2.80;;;2.60;;
52248;SDS011;38541;48.130;8.378;2022-08-25T02:45:54;3.88;;;3.38;;
52248;SDS011;38541;48.130;8.378;2022-08-25T02:48:21;3.30;;;3.08;;
52248;SDS011;38541;48.130;8.378;2022-08-25T02:50:49;2.88;;;2.67;;
52248;SDS011;38541;48.130;8.378;2022-08-25T02:53:18;3.65;;;3.35;;
52248;SDS011;38541;48.130;8.378;2022-08-25T02:55:45;3.22;;;2.80;;
52248;SDS011;38541;48.130;8.378;2022-08-25T02:58:13;3.33;;;3.03;;
52248;SDS011;38541;48.130;8.378;2022-08-25T03:00:40;3.58;;;3.28;;
52248;SDS011;38541;48.130;8.378;2022-08-25T03:03:08;3.40;;;3.10;;
52248;SDS011;38541;48.130;8.378;2022-08-25T03:05:35;3.40;;;3.10;;
52248;SDS011;38541;48.130;8.378;2022-08-25T03:08:01;3.60;;;3.00;;
52248;SDS011;38541;48.130;8.378;2022-08-25T03:10:29;3.03;;;2.78;;
52248;SDS011;38541;48.130;8.378;2022-08-25T03:12:56;2.75;;;2.55;;
52248;SDS011;38541;48.130;8.378;2022-08-25T03:15:23;2.83;;;2.63;;
52248;SDS011;38541;48.130;8.378;2022-08-25T03:17:55;2.72;;;2.53;;
52248;SDS011;38541;48.130;8.378;2022-08-25T03:20:25;3.17;;;2.88;;
52248;SDS011;38541;48.130;8.378;2022-08-25T03:22:53;2.95;;;2.70;;
52248;SDS011;38541;48.130;8.378;2022-08-25T03:25:19;3.20;;;3.00;;
52248;SDS011;38541;48.130;8.378;2022-08-25T03:28:09;2.53;;;2.33;;
52248;SDS011;38541;48.130;8.378;2022-08-25T03:30:36;3.10;;;2.90;;
52248;SDS011;38541;48.130;8.378;2022-08-25T03:33:02;3.00;;;2.80;;
52248;SDS011;38541;48.130;8.378;2022-08-25T03:35:29;2.72;;;2.53;;
52248;SDS011;38541;48.130;8.378;2022-08-25T03:37:56;2.85;;;2.65;;
52248;SDS011;38541;48.130;8.378;2022-08-25T03:40:24;2.92;;;2.72;;
52248;SDS011;38541;48.130;8.378;2022-08-25T03:42:51;3.03;;;2.78;;
52248;SDS011;38541;48.130;8.378;2022-08-25T03:45:20;3.00;;;2.80;;
52248;SDS011;38541;48.130;8.378;2022-08-25T03:47:47;2.53;;;2.33;;
52248;SDS011;38541;48.130;8.378;2022-08-25T03:50:15;2.88;;;2.67;;
52248;SDS011;38541;48.130;8.378;2022-08-25T03:52:43;2.78;;;2.58;;
52248;SDS011;38541;48.130;8.378;2022-08-25T03:55:11;3.22;;;2.97;;
52248;SDS011;38541;48.130;8.378;2022-08-25T03:57:39;3.05;;;2.85;;
52248;SDS011;38541;48.130;8.378;2022-08-25T04:00:07;2.92;;;2.70;;
52248;SDS011;38541;48.130;8.378;2022-08-25T04:02:38;3.40;;;3.10;;
52248;SDS011;38541;48.130;8.378;2022-08-25T04:05:06;3.92;;;3.30;;
52248;SDS011;38541;48.130;8.378;2022-08-25T04:07:34;3.35;;;3.05;;
52248;SDS011;38541;48.130;8.378;2022-08-25T04:10:00;3.13;;;2.92;;
52248;SDS011;38541;48.130;8.378;2022-08-25T04:12:27;3.13;;;2.63;;
52248;SDS011;38541;48.130;8.378;2022-08-25T04:14:54;3.08;;;2.88;;
52248;SDS011;38541;48.130;8.378;2022-08-25T04:17:21;3.70;;;2.88;;
52248;SDS011;38541;48.130;8.378;2022-08-25T04:19:48;3.13;;;2.90;;
52248;SDS011;38541;48.130;8.378;2022-08-25T04:22:15;2.85;;;2.65;;
52248;SDS011;38541;48.130;8.378;2022-08-25T04:24:42;2.80;;;2.60;;
52248;SDS011;38541;48.130;8.378;2022-08-25T04:27:08;2.50;;;2.30;;
52248;SDS011;38541;48.130;8.378;2022-08-25T04:29:35;2.80;;;2.60;;
52248;SDS011;38541;48.130;8.378;2022-08-25T04:32:02;2.47;;;2.28;;
52248;SDS011;38541;48.130;8.378;2022-08-25T04:34:29;2.75;;;2.55;;
52248;SDS011;38541;48.130;8.378;2022-08-25T04:37:00;4.53;;;2.75;;
52248;SDS011;38541;48.130;8.378;2022-08-25T04:39:28;2.47;;;2.30;;
52248;SDS011;38541;48.130;8.378;2022-08-25T04:41:55;2.78;;;2.58;;
52248;SDS011;38541;48.130;8.378;2022-08-25T04:44:22;2.50;;;2.30;;
52248;SDS011;38541;48.130;8.378;2022-08-25T04:46:49;2.90;;;2.70;;
52248;SDS011;38541;48.130;8.378;2022-08-25T04:49:15;3.13;;;2.50;;
52248;SDS011;38541;48.130;8.378;2022-08-25T04:51:42;3.22;;;2.92;;
52248;SDS011;38541;48.130;8.378;2022-08-25T04:54:11;2.58;;;2.40;;
52248;SDS011;38541;48.130;8.378;2022-08-25T04:56:39;3.22;;;2.92;;
52248;SDS011;38541;48.130;8.378;2022-08-25T04:59:07;6.55;;;5.50;;
52248;SDS011;38541;48.130;8.378;2022-08-25T05:01:38;6.47;;;5.05;;
52248;SDS011;38541;48.130;8.378;2022-08-25T05:04:06;6.22;;;4.32;;
52248;SDS011;38541;48.130;8.378;2022-08-25T05:06:41;6.18;;;3.88;;
52248;SDS011;38541;48.130;8.378;2022-08-25T05:09:10;6.90;;;3.88;;
52248;SDS011;38541;48.130;8.378;2022-08-25T05:11:37;6.15;;;4.47;;
52248;SDS011;38541;48.130;8.378;2022-08-25T05:14:04;3.85;;;3.20;;
52248;SDS011;38541;48.130;8.378;2022-08-25T05:16:36;4.15;;;3.20;;
52248;SDS011;38541;48.130;8.378;2022-08-25T05:19:04;5.72;;;3.53;;
52248;SDS011;38541;48.130;8.378;2022-08-25T05:21:31;4.60;;;3.08;;
52248;SDS011;38541;48.130;8.378;2022-08-25T05:23:59;3.45;;;3.08;;
52248;SDS011;38541;48.130;8.378;2022-08-25T05:26:27;4.68;;;3.33;;
52248;SDS011;38541;48.130;8.378;2022-08-25T05:28:56;3.95;;;3.15;;
52248;SDS011;38541;48.130;8.378;2022-08-25T05:31:24;5.90;;;3.10;;
52248;SDS011;38541;48.130;8.378;2022-08-25T05:33:52;2.70;;;2.50;;
52248;SDS011;38541;48.130;8.378;2022-08-25T05:36:21;2.65;;;2.45;;
52248;SDS011;38541;48.130;8.378;2022-08-25T05:38:48;3.25;;;3.05;;
52248;SDS011;38541;48.130;8.378;2022-08-25T05:41:17;2.55;;;2.35;;
52248;SDS011;38541;48.130;8.378;2022-08-25T05:43:46;2.88;;;2.67;;
52248;SDS011;38541;48.130;8.378;2022-08-25T05:46:15;3.40;;;3.10;;
52248;SDS011;38541;48.130;8.378;2022-08-25T05:48:43;14.90;;;8.27;;
52248;SDS011;38541;48.130;8.378;2022-08-25T05:51:10;4.13;;;3.72;;
52248;SDS011;38541;48.130;8.378;2022-08-25T05:53:38;4.20;;;3.75;;
52248;SDS011;38541;48.130;8.378;2022-08-25T05:56:07;4.57;;;3.55;;
52248;SDS011;38541;48.130;8.378;2022-08-25T05:58:34;3.28;;;2.75;;
52248;SDS011;38541;48.130;8.378;2022-08-25T06:01:02;3.05;;;2.85;;
52248;SDS011;38541;48.130;8.378;2022-08-25T06:03:48;3.00;;;2.80;;
52248;SDS011;38541;48.130;8.378;2022-08-25T06:06:19;2.95;;;2.63;;
52248;SDS011;38541;48.130;8.378;2022-08-25T06:08:47;2.95;;;2.67;;
52248;SDS011;38541;48.130;8.378;2022-08-25T06:11:14;5.10;;;3.53;;
52248;SDS011;38541;48.130;8.378;2022-08-25T06:13:41;4.35;;;3.60;;
52248;SDS011;38541;48.130;8.378;2022-08-25T06:16:08;4.00;;;3.60;;
52248;SDS011;38541;48.130;8.378;2022-08-25T06:18:35;4.63;;;4.13;;
52248;SDS011;38541;48.130;8.378;2022-08-25T06:21:09;3.60;;;3.30;;
52248;SDS011;38541;48.130;8.378;2022-08-25T06:23:38;3.20;;;3.00;;
52248;SDS011;38541;48.130;8.378;2022-08-25T06:26:05;2.97;;;2.67;;
52248;SDS011;38541;48.130;8.378;2022-08-25T06:28:36;3.42;;;3.10;;
52248;SDS011;38541;48.130;8.378;2022-08-25T06:31:03;3.25;;;2.95;;
52248;SDS011;38541;48.130;8.378;2022-08-25T06:33:30;3.65;;;3.35;;
52248;SDS011;38541;48.130;8.378;2022-08-25T06:35:56;2.72;;;2.50;;
52248;SDS011;38541;48.130;8.378;2022-08-25T06:38:23;3.58;;;3.28;;
52248;SDS011;38541;48.130;8.378;2022-08-25T06:40:50;3.33;;;3.03;;
52248;SDS011;38541;48.130;8.378;2022-08-25T06:43:20;3.88;;;3.58;;
52248;SDS011;38541;48.130;8.378;2022-08-25T06:45:47;3.45;;;3.15;;
52248;SDS011;38541;48.130;8.378;2022-08-25T06:48:14;3.85;;;3.10;;
52248;SDS011;38541;48.130;8.378;2022-08-25T06:50:41;3.65;;;3.35;;
52248;SDS011;38541;48.130;8.378;2022-08-25T06:53:08;3.95;;;3.10;;
52248;SDS011;38541;48.130;8.378;2022-08-25T06:55:35;3.78;;;3.47;;
52248;SDS011;38541;48.130;8.378;2022-08-25T06:58:02;3.30;;;2.80;;
52248;SDS011;38541;48.130;8.378;2022-08-25T07:00:31;3.80;;;3.40;;
52248;SDS011;38541;48.130;8.378;2022-08-25T07:02:57;4.55;;;2.95;;
52248;SDS011;38541;48.130;8.378;2022-08-25T07:05:27;3.15;;;2.83;;
52248;SDS011;38541;48.130;8.378;2022-08-25T07:08:08;8.85;;;2.70;;
52248;SDS011;38541;48.130;8.378;2022-08-25T07:10:37;2.97;;;2.78;;
52248;SDS011;38541;48.130;8.378;2022-08-25T07:13:03;3.13;;;2.83;;
52248;SDS011;38541;48.130;8.378;2022-08-25T07:15:30;4.38;;;2.83;;
52248;SDS011;38541;48.130;8.378;2022-08-25T07:17:56;2.63;;;2.42;;
52248;SDS011;38541;48.130;8.378;2022-08-25T07:20:23;2.80;;;2.60;;
52248;SDS011;38541;48.130;8.378;2022-08-25T07:22:54;3.17;;;2.92;;
52248;SDS011;38541;48.130;8.378;2022-08-25T07:25:22;4.10;;;2.92;;
52248;SDS011;38541;48.130;8.378;2022-08-25T07:27:49;2.83;;;2.60;;
52248;SDS011;38541;48.130;8.378;2022-08-25T07:30:15;2.63;;;2.42;;
52248;SDS011;38541;48.130;8.378;2022-08-25T07:32:42;2.95;;;2.65;;
52248;SDS011;38541;48.130;8.378;2022-08-25T07:35:09;2.92;;;2.72;;
52248;SDS011;38541;48.130;8.378;2022-08-25T07:37:51;2.63;;;2.42;;
52248;SDS011;38541;48.130;8.378;2022-08-25T07:40:27;3.60;;;3.30;;
52248;SDS011;38541;48.130;8.378;2022-08-25T07:42:56;3.35;;;3.05;;
52248;SDS011;38541;48.130;8.378;2022-08-25T07:45:27;2.63;;;2.42;;
52248;SDS011;38541;48.130;8.378;2022-08-25T07:47:56;2.75;;;2.55;;
52248;SDS011;38541;48.130;8.378;2022-08-25T07:50:25;2.55;;;2.35;;
52248;SDS011;38541;48.130;8.378;2022-08-25T07:52:52;2.70;;;2.50;;
52248;SDS011;38541;48.130;8.378;2022-08-25T07:55:21;3.20;;;2.95;;
52248;SDS011;38541;48.130;8.378;2022-08-25T07:57:49;2.67;;;2.47;;
52248;SDS011;38541;48.130;8.378;2022-08-25T08:00:21;3.42;;;3.00;;
52248;SDS011;38541;48.130;8.378;2022-08-25T08:02:49;3.47;;;2.70;;
52248;SDS011;38541;48.130;8.378;2022-08-25T08:05:16;2.83;;;2.63;;
52248;SDS011;38541;48.130;8.378;2022-08-25T08:07:43;2.47;;;2.30;;
52248;SDS011;38541;48.130;8.378;2022-08-25T08:10:11;2.53;;;2.33;;
52248;SDS011;38541;48.130;8.378;2022-08-25T08:12:59;3.35;;;2.67;;
52248;SDS011;38541;48.130;8.378;2022-08-25T08:15:27;2.80;;;2.60;;
52248;SDS011;38541;48.130;8.378;2022-08-25T08:17:55;2.72;;;2.53;;
52248;SDS011;38541;48.130;8.378;2022-08-25T08:20:23;3.20;;;2.70;;
52248;SDS011;38541;48.130;8.378;2022-08-25T08:22:50;3.13;;;2.72;;
52248;SDS011;38541;48.130;8.378;2022-08-25T08:25:17;2.88;;;2.67;;
52248;SDS011;38541;48.130;8.378;2022-08-25T08:27:52;2.63;;;2.42;;
52248;SDS011;38541;48.130;8.378;2022-08-25T08:30:20;2.60;;;2.40;;
52248;SDS011;38541;48.130;8.378;2022-08-25T08:32:51;3.00;;;2.80;;
52248;SDS011;38541;48.130;8.378;2022-08-25T08:35:35;2.45;;;2.25;;
52248;SDS011;38541;48.130;8.378;2022-08-25T08:38:02;2.65;;;2.45;;
52248;SDS011;38541;48.130;8.378;2022-08-25T08:40:42;2.72;;;2.53;;
52248;SDS011;38541;48.130;8.378;2022-08-25T08:43:40;2.80;;;2.60;;
52248;SDS011;38541;48.130;8.378;2022-08-25T08:46:09;3.03;;;2.42;;
52248;SDS011;38541;48.130;8.378;2022-08-25T08:48:43;2.75;;;2.55;;
52248;SDS011;38541;48.130;8.378;2022-08-25T08:51:28;2.58;;;2.38;;
52248;SDS011;38541;48.130;8.378;2022-08-25T08:54:07;2.97;;;2.78;;
52248;SDS011;38541;48.130;8.378;2022-08-25T08:56:41;2.20;;;2.00;;
52248;SDS011;38541;48.130;8.378;2022-08-25T08:59:17;2.50;;;2.30;;
52248;SDS011;38541;48.130;8.378;2022-08-25T09:01:56;2.90;;;2.70;;
52248;SDS011;38541;48.130;8.378;2022-08-25T09:04:40;3.00;;;2.70;;
52248;SDS011;38541;48.130;8.378;2022-08-25T09:07:13;2.55;;;2.35;;
52248;SDS011;38541;48.130;8.378;2022-08-25T09:09:45;2.65;;;2.45;;
52248;SDS011;38541;48.130;8.378;2022-08-25T09:21:33;2.08;;;1.98;;
52248;SDS011;38541;48.130;8.378;2022-08-25T09:27:15;2.28;;;2.10;;
52248;SDS011;38541;48.130;8.378;2022-08-25T09:32:34;2.90;;;2.43;;
52248;SDS011;38541;48.130;8.378;2022-08-25T09:35:18;3.42;;;2.20;;
52248;SDS011;38541;48.130;8.378;2022-08-25T09:37:54;2.95;;;2.75;;
52248;SDS011;38541;48.130;8.378;2022-08-25T09:40:31;3.75;;;2.20;;
52248;SDS011;38541;48.130;8.378;2022-08-25T09:43:00;2.15;;;1.95;;
52248;SDS011;38541;48.130;8.378;2022-08-25T09:45:35;3.33;;;2.55;;
52248;SDS011;38541;48.130;8.378;2022-08-25T09:50:56;2.50;;;2.30;;
52248;SDS011;38541;48.130;8.378;2022-08-25T09:53:27;2.90;;;2.70;;
52248;SDS011;38541;48.130;8.378;2022-08-25T09:56:00;2.80;;;2.60;;
52248;SDS011;38541;48.130;8.378;2022-08-25T09:58:31;2.25;;;2.10;;
52248;SDS011;38541;48.130;8.378;2022-08-25T10:03:51;2.58;;;2.10;;
52248;SDS011;38541;48.130;8.378;2022-08-25T10:06:24;2.03;;;1.83;;
52248;SDS011;38541;48.130;8.378;2022-08-25T10:08:57;2.08;;;1.98;;
52248;SDS011;38541;48.130;8.378;2022-08-25T10:11:34;2.20;;;2.00;;
52248;SDS011;38541;48.130;8.378;2022-08-25T10:14:14;6.40;;;2.63;;
52248;SDS011;38541;48.130;8.378;2022-08-25T10:16:43;2.45;;;2.30;;
52248;SDS011;38541;48.130;8.378;2022-08-25T10:24:36;2.40;;;2.20;;
52248;SDS011;38541;48.130;8.378;2022-08-25T10:30:10;2.50;;;2.30;;
52248;SDS011;38541;48.130;8.378;2022-08-25T10:38:26;2.97;;;2.08;;
52248;SDS011;38541;48.130;8.378;2022-08-25T10:50:00;1.92;;;1.83;;
52248;SDS011;38541;48.130;8.378;2022-08-25T11:01:18;2.55;;;2.35;;
52248;SDS011;38541;48.130;8.378;2022-08-25T11:06:48;2.55;;;1.70;;
52248;SDS011;38541;48.130;8.378;2022-08-25T11:09:22;2.08;;;1.98;;
52248;SDS011;38541;48.130;8.378;2022-08-25T11:12:02;1.95;;;1.85;;
52248;SDS011;38541;48.130;8.378;2022-08-25T11:14:34;1.92;;;1.80;;
52248;SDS011;38541;48.130;8.378;2022-08-25T11:17:12;18.60;;;3.35;;
52248;SDS011;38541;48.130;8.378;2022-08-25T11:19:49;24.52;;;3.55;;
52248;SDS011;38541;48.130;8.378;2022-08-25T11:22:56;2.20;;;2.00;;
52248;SDS011;38541;48.130;8.378;2022-08-25T11:25:22;1.70;;;1.60;;
52248;SDS011;38541;48.130;8.378;2022-08-25T11:27:56;1.63;;;1.52;;
52248;SDS011;38541;48.130;8.378;2022-08-25T11:30:28;2.28;;;2.08;;
52248;SDS011;38541;48.130;8.378;2022-08-25T11:32:56;1.85;;;1.52;;
52248;SDS011;38541;48.130;8.378;2022-08-25T11:35:30;1.60;;;1.50;;
52248;SDS011;38541;48.130;8.378;2022-08-25T11:56:40;1.55;;;1.45;;
52248;SDS011;38541;48.130;8.378;2022-08-25T11:59:07;2.35;;;1.70;;
52248;SDS011;38541;48.130;8.378;2022-08-25T12:09:33;1.67;;;1.58;;
52248;SDS011;38541;48.130;8.378;2022-08-25T12:12:27;1.55;;;1.45;;
52248;SDS011;38541;48.130;8.378;2022-08-25T12:14:55;2.05;;;1.95;;
52248;SDS011;38541;48.130;8.378;2022-08-25T12:23:34;1.75;;;1.55;;
52248;SDS011;38541;48.130;8.378;2022-08-25T12:26:30;1.58;;;1.48;;
52248;SDS011;38541;48.130;8.378;2022-08-25T12:34:38;1.55;;;1.45;;
52248;SDS011;38541;48.130;8.378;2022-08-25T12:37:20;1.83;;;1.65;;
52248;SDS011;38541;48.130;8.378;2022-08-25T12:42:34;1.73;;;1.63;;
52248;SDS011;38541;48.130;8.378;2022-08-25T12:45:07;2.03;;;1.85;;
52248;SDS011;38541;48.130;8.378;2022-08-25T12:47:49;1.80;;;1.70;;
52248;SDS011;38541;48.130;8.378;2022-08-25T12:53:14;1.70;;;1.60;;
52248;SDS011;38541;48.130;8.378;2022-08-25T12:55:58;1.70;;;1.60;;
52248;SDS011;38541;48.130;8.378;2022-08-25T12:58:49;1.77;;;1.67;;
52248;SDS011;38541;48.130;8.378;2022-08-25T13:15:45;1.83;;;1.73;;
52248;SDS011;38541;48.130;8.378;2022-08-25T13:18:27;1.80;;;1.70;;
52248;SDS011;38541;48.130;8.378;2022-08-25T13:23:40;1.52;;;1.42;;
52248;SDS011;38541;48.130;8.378;2022-08-25T13:26:13;1.90;;;1.80;;
52248;SDS011;38541;48.130;8.378;2022-08-25T13:28:43;1.92;;;1.60;;
52248;SDS011;38541;48.130;8.378;2022-08-25T13:31:20;1.52;;;1.42;;
52248;SDS011;38541;48.130;8.378;2022-08-25T13:33:55;1.97;;;1.70;;
52248;SDS011;38541;48.130;8.378;2022-08-25T13:36:25;1.48;;;1.38;;
52248;SDS011;38541;48.130;8.378;2022-08-25T13:39:20;2.03;;;1.45;;
52248;SDS011;38541;48.130;8.378;2022-08-25T13:42:15;1.70;;;1.60;;
52248;SDS011;38541;48.130;8.378;2022-08-25T13:44:43;1.77;;;1.67;;
52248;SDS011;38541;48.130;8.378;2022-08-25T13:47:33;1.77;;;1.67;;
52248;SDS011;38541;48.130;8.378;2022-08-25T13:50:19;1.52;;;1.42;;
52248;SDS011;38541;48.130;8.378;2022-08-25T13:53:02;1.65;;;1.55;;
52248;SDS011;38541;48.130;8.378;2022-08-25T14:03:32;1.58;;;1.35;;
52248;SDS011;38541;48.130;8.378;2022-08-25T14:08:41;1.48;;;1.38;;
52248;SDS011;38541;48.130;8.378;2022-08-25T14:11:12;1.60;;;1.50;;
52248;SDS011;38541;48.130;8.378;2022-08-25T14:16:50;1.63;;;1.52;;
52248;SDS011;38541;48.130;8.378;2022-08-25T14:19:22;1.88;;;1.10;;
52248;SDS011;38541;48.130;8.378;2022-08-25T14:21:50;1.60;;;1.50;;
52248;SDS011;38541;48.130;8.378;2022-08-25T14:24:22;1.67;;;1.40;;
52248;SDS011;38541;48.130;8.378;2022-08-25T14:26:49;1.67;;;1.58;;
52248;SDS011;38541;48.130;8.378;2022-08-25T14:29:20;1.50;;;1.40;;
52248;SDS011;38541;48.130;8.378;2022-08-25T14:31:47;1.77;;;1.67;;
52248;SDS011;38541;48.130;8.378;2022-08-25T14:34:15;1.50;;;1.40;;
52248;SDS011;38541;48.130;8.378;2022-08-25T14:36:45;1.60;;;1.50;;
52248;SDS011;38541;48.130;8.378;2022-08-25T14:39:13;1.60;;;1.50;;
52248;SDS011;38541;48.130;8.378;2022-08-25T14:41:40;1.75;;;1.65;;
52248;SDS011;38541;48.130;8.378;2022-08-25T14:44:18;1.45;;;1.35;;
52248;SDS011;38541;48.130;8.378;2022-08-25T14:46:49;1.30;;;1.30;;
52248;SDS011;38541;48.130;8.378;2022-08-25T14:49:23;1.60;;;1.50;;
52248;SDS011;38541;48.130;8.378;2022-08-25T14:51:55;2.08;;;1.35;;
52248;SDS011;38541;48.130;8.378;2022-08-25T14:54:24;1.50;;;1.40;;
52248;SDS011;38541;48.130;8.378;2022-08-25T14:56:52;1.65;;;1.55;;
52248;SDS011;38541;48.130;8.378;2022-08-25T14:59:19;1.70;;;1.60;;
52248;SDS011;38541;48.130;8.378;2022-08-25T15:01:46;4.88;;;1.63;;
52248;SDS011;38541;48.130;8.378;2022-08-25T15:04:19;1.38;;;1.27;;
52248;SDS011;38541;48.130;8.378;2022-08-25T15:06:50;2.17;;;1.45;;
52248;SDS011;38541;48.130;8.378;2022-08-25T15:09:21;2.25;;;2.05;;
52248;SDS011;38541;48.130;8.378;2022-08-25T15:11:50;1.50;;;1.40;;
52248;SDS011;38541;48.130;8.378;2022-08-25T15:14:20;1.52;;;1.42;;
52248;SDS011;38541;48.130;8.378;2022-08-25T15:16:54;1.50;;;1.40;;
52248;SDS011;38541;48.130;8.378;2022-08-25T15:19:23;1.35;;;1.33;;
52248;SDS011;38541;48.130;8.378;2022-08-25T15:21:51;1.58;;;1.48;;
52248;SDS011;38541;48.130;8.378;2022-08-25T15:24:23;1.50;;;1.30;;
52248;SDS011;38541;48.130;8.378;2022-08-25T15:26:51;1.70;;;1.60;;
52248;SDS011;38541;48.130;8.378;2022-08-25T15:29:20;1.38;;;1.27;;
52248;SDS011;38541;48.130;8.378;2022-08-25T15:31:48;1.50;;;1.40;;
52248;SDS011;38541;48.130;8.378;2022-08-25T15:34:15;1.52;;;1.42;;
52248;SDS011;38541;48.130;8.378;2022-08-25T15:36:42;1.30;;;1.20;;
52248;SDS011;38541;48.130;8.378;2022-08-25T15:39:09;1.55;;;1.45;;
52248;SDS011;38541;48.130;8.378;2022-08-25T15:41:36;1.67;;;1.50;;
52248;SDS011;38541;48.130;8.378;2022-08-25T15:44:04;1.50;;;1.40;;
52248;SDS011;38541;48.130;8.378;2022-08-25T15:46:33;1.27;;;1.27;;
52248;SDS011;38541;48.130;8.378;2022-08-25T15:49:03;1.55;;;1.33;;
52248;SDS011;38541;48.130;8.378;2022-08-25T15:51:33;1.70;;;1.60;;
52248;SDS011;38541;48.130;8.378;2022-08-25T15:53:59;1.35;;;1.30;;
52248;SDS011;38541;48.130;8.378;2022-08-25T15:56:26;1.77;;;1.45;;
52248;SDS011;38541;48.130;8.378;2022-08-25T15:58:53;1.60;;;1.50;;
52248;SDS011;38541;48.130;8.378;2022-08-25T16:01:21;2.40;;;1.83;;
52248;SDS011;38541;48.130;8.378;2022-08-25T16:03:50;1.50;;;1.40;;
52248;SDS011;38541;48.130;8.378;2022-08-25T16:06:17;1.98;;;1.88;;
52248;SDS011;38541;48.130;8.378;2022-08-25T16:08:44;1.70;;;1.60;;
52248;SDS011;38541;48.130;8.378;2022-08-25T16:11:15;2.50;;;1.60;;
52248;SDS011;38541;48.130;8.378;2022-08-25T16:13:44;1.60;;;1.45;;
52248;SDS011;38541;48.130;8.378;2022-08-25T16:16:13;1.70;;;1.60;;
52248;SDS011;38541;48.130;8.378;2022-08-25T16:18:42;1.17;;;1.17;;
52248;SDS011;38541;48.130;8.378;2022-08-25T16:21:10;1.63;;;1.52;;
52248;SDS011;38541;48.130;8.378;2022-08-25T16:23:38;1.75;;;1.65;;
52248;SDS011;38541;48.130;8.378;2022-08-25T16:26:05;1.75;;;1.65;;
52248;SDS011;38541;48.130;8.378;2022-08-25T16:28:35;2.25;;;1.55;;
52248;SDS011;38541;48.130;8.378;2022-08-25T16:31:03;1.83;;;1.73;;
52248;SDS011;38541;48.130;8.378;2022-08-25T16:33:33;1.90;;;1.20;;
52248;SDS011;38541;48.130;8.378;2022-08-25T16:36:03;1.52;;;1.42;;
52248;SDS011;38541;48.130;8.378;2022-08-25T16:38:34;1.60;;;1.50;;
52248;SDS011;38541;48.130;8.378;2022-08-25T16:41:05;1.88;;;1.48;;
52248;SDS011;38541;48.130;8.378;2022-08-25T16:43:34;1.75;;;1.63;;
52248;SDS011;38541;48.130;8.378;2022-08-25T16:46:04;1.60;;;1.50;;
52248;SDS011;38541;48.130;8.378;2022-08-25T16:48:33;1.48;;;1.38;;
52248;SDS011;38541;48.130;8.378;2022-08-25T16:51:13;1.55;;;1.45;;
52248;SDS011;38541;48.130;8.378;2022-08-25T16:53:44;1.60;;;1.42;;
52248;SDS011;38541;48.130;8.378;2022-08-25T16:56:31;1.80;;;1.70;;
52248;SDS011;38541;48.130;8.378;2022-08-25T16:58:59;1.50;;;1.40;;
52248;SDS011;38541;48.130;8.378;2022-08-25T17:01:28;2.15;;;1.67;;
52248;SDS011;38541;48.130;8.378;2022-08-25T17:03:56;1.80;;;1.70;;
52248;SDS011;38541;48.130;8.378;2022-08-25T17:06:25;4.15;;;2.03;;
52248;SDS011;38541;48.130;8.378;2022-08-25T17:08:54;1.80;;;1.70;;
52248;SDS011;38541;48.130;8.378;2022-08-25T17:11:23;2.00;;;1.90;;
52248;SDS011;38541;48.130;8.378;2022-08-25T17:13:53;1.67;;;1.58;;
52248;SDS011;38541;48.130;8.378;2022-08-25T17:16:29;2.25;;;2.10;;
52248;SDS011;38541;48.130;8.378;2022-08-25T17:19:02;1.80;;;1.70;;
52248;SDS011;38541;48.130;8.378;2022-08-25T17:21:32;2.25;;;2.13;;
52248;SDS011;38541;48.130;8.378;2022-08-25T17:24:01;2.10;;;2.00;;
52248;SDS011;38541;48.130;8.378;2022-08-25T17:26:30;2.28;;;2.08;;